createdAt,value
2022-11-14T00:03:06.386Z,5.30
2022-11-14T00:08:15.506Z,5.20
2022-11-14T00:13:18.304Z,5.20
2022-11-14T00:18:20.532Z,5.20
2022-11-14T00:23:22.534Z,5.30
2022-11-14T00:28:24.342Z,5.30
2022-11-14T00:33:26.125Z,5.30
2022-11-14T00:38:28.400Z,5.30
2022-11-14T00:43:30.430Z,5.40
2022-11-14T00:48:32.507Z,5.50
2022-11-14T00:53:34.444Z,5.50
2022-11-14T00:58:36.264Z,5.60
2022-11-14T01:03:38.038Z,5.60
2022-11-14T01:08:39.869Z,5.60
2022-11-14T01:13:41.926Z,5.60
2022-11-14T01:18:43.704Z,5.60
2022-11-14T01:23:45.521Z,5.60
2022-11-14T01:28:47.533Z,5.60
2022-11-14T01:33:50.723Z,5.70
2022-11-14T01:38:53.805Z,5.70
2022-11-14T01:43:55.617Z,5.80
2022-11-14T01:49:01.435Z,5.70
2022-11-14T01:54:06.893Z,5.80
2022-11-14T01:59:14.371Z,5.70
2022-11-14T02:04:26.081Z,5.70
2022-11-14T02:09:31.489Z,5.70
2022-11-14T02:14:34.554Z,5.80
2022-11-14T02:19:49.728Z,5.80
2022-11-14T02:24:51.515Z,5.80
2022-11-14T02:29:53.374Z,5.80
2022-11-14T02:34:55.149Z,5.80
2022-11-14T02:39:57.070Z,5.80
2022-11-14T02:44:58.893Z,5.90
2022-11-14T02:50:00.736Z,5.80
2022-11-14T02:55:03.003Z,5.80
2022-11-14T03:00:08.801Z,5.70
2022-11-14T03:05:15.385Z,5.70
2022-11-14T03:10:18.296Z,5.60
2022-11-14T03:15:20.100Z,5.60
2022-11-14T03:20:22.034Z,5.50
2022-11-14T03:25:23.867Z,5.50
2022-11-14T03:30:26.531Z,5.50
2022-11-14T03:35:28.319Z,5.40
2022-11-14T03:40:30.115Z,5.30
2022-11-14T03:45:32.006Z,5.40
2022-11-14T03:50:33.879Z,5.40
2022-11-14T03:55:35.929Z,5.40
2022-11-14T04:00:38.058Z,5.40
2022-11-14T04:05:39.915Z,5.40
2022-11-14T04:10:42.019Z,5.50
2022-11-14T04:15:43.862Z,5.60
2022-11-14T04:20:45.635Z,5.60
2022-11-14T04:25:47.567Z,5.70
2022-11-14T04:30:49.461Z,5.80
2022-11-14T04:35:51.240Z,5.80
2022-11-14T04:40:54.119Z,5.80
2022-11-14T04:45:55.928Z,5.80
2022-11-14T04:50:57.764Z,5.80
2022-11-14T04:55:59.559Z,5.80
2022-11-14T05:01:08.680Z,5.80
2022-11-14T05:06:11.101Z,5.80
2022-11-14T05:11:17.423Z,5.90
2022-11-14T05:16:19.206Z,5.90
2022-11-14T05:21:21.057Z,5.90
2022-11-14T05:26:22.940Z,5.90
2022-11-14T05:31:24.845Z,5.90
2022-11-14T05:36:26.693Z,5.90
2022-11-14T05:41:28.495Z,5.90
2022-11-14T05:46:30.270Z,5.90
2022-11-14T05:51:32.284Z,5.90
2022-11-14T05:56:34.079Z,5.90
2022-11-14T06:01:35.968Z,5.90
2022-11-14T06:06:37.819Z,5.90
2022-11-14T06:11:39.708Z,5.90
2022-11-14T06:16:41.495Z,5.90
2022-11-14T06:21:43.293Z,5.90
2022-11-14T06:26:45.063Z,5.90
2022-11-14T06:31:46.988Z,6.00
2022-11-14T06:36:48.810Z,6.00
2022-11-14T06:41:51.300Z,6.10
2022-11-14T06:46:53.253Z,6.20
2022-11-14T06:51:55.130Z,6.20
2022-11-14T06:56:56.909Z,6.30
2022-11-14T07:01:59.212Z,6.30
2022-11-14T07:07:01.088Z,6.30
2022-11-14T07:12:03.145Z,6.40
2022-11-14T07:17:04.970Z,6.30
2022-11-14T07:22:06.769Z,6.40
2022-11-14T07:27:11.079Z,6.40
2022-11-14T07:32:13.846Z,6.50
2022-11-14T07:37:15.732Z,6.50
2022-11-14T07:42:17.559Z,6.50
2022-11-14T07:47:19.338Z,6.50
2022-11-14T07:52:21.936Z,6.60
2022-11-14T07:57:23.764Z,6.60
2022-11-14T08:02:25.712Z,6.60
2022-11-14T08:07:27.572Z,6.60
2022-11-14T08:12:29.570Z,6.60
2022-11-14T08:17:31.362Z,6.60
2022-11-14T08:22:33.236Z,6.60
2022-11-14T08:27:35.040Z,6.60
2022-11-14T08:32:37.249Z,6.60
2022-11-14T08:37:39.074Z,6.70
2022-11-14T08:42:42.128Z,6.70
2022-11-14T08:47:50.807Z,6.70
2022-11-14T08:52:52.874Z,6.80
2022-11-14T08:57:54.897Z,6.80
2022-11-14T09:02:56.746Z,6.90
2022-11-14T09:07:58.934Z,6.90
2022-11-14T09:13:02.090Z,6.90
2022-11-14T09:18:04.035Z,7.00
2022-11-14T09:23:05.969Z,7.10
2022-11-14T09:28:09.138Z,7.20
2022-11-14T09:33:14.330Z,7.20
2022-11-14T09:38:16.178Z,7.30
2022-11-14T09:43:50.048Z,7.40
2022-11-14T09:48:52.932Z,7.50
2022-11-14T09:53:59.501Z,7.50
2022-11-14T09:59:03.573Z,7.60
2022-11-14T10:04:14.493Z,7.60
2022-11-14T10:09:41.909Z,7.70
2022-11-14T10:15:33.674Z,7.70
2022-11-14T10:20:41.566Z,7.80
2022-11-14T10:25:53.322Z,7.90
2022-11-14T10:31:16.452Z,8.10
2022-11-14T10:36:43.152Z,8.30
2022-11-14T10:41:58.037Z,8.40
2022-11-14T10:47:07.099Z,8.40
2022-11-14T10:52:19.219Z,8.40
2022-11-14T10:57:24.781Z,8.50
2022-11-14T11:02:47.984Z,8.60
2022-11-14T11:08:41.560Z,8.80
2022-11-14T11:13:35.074Z,9.10
2022-11-14T11:18:37.083Z,9.60
2022-11-14T11:23:53.839Z,10.00
2022-11-14T11:29:16.471Z,10.10
2022-11-14T11:34:26.957Z,10.30
2022-11-14T11:39:30.941Z,10.40
2022-11-14T11:44:39.815Z,10.60
2022-11-14T11:49:53.036Z,10.50
2022-11-14T11:55:02.707Z,10.60
2022-11-14T12:00:14.020Z,10.60
2022-11-14T12:05:26.807Z,10.50
2022-11-14T12:10:31.195Z,10.50
2022-11-14T12:16:12.817Z,10.60
2022-11-14T12:21:47.237Z,10.60
2022-11-14T12:27:00.965Z,10.70
2022-11-14T12:32:06.952Z,10.80
2022-11-14T12:37:31.141Z,10.90
2022-11-14T12:42:33.411Z,10.90
2022-11-14T12:48:13.465Z,10.80
2022-11-14T12:53:36.355Z,10.70
2022-11-14T12:59:09.147Z,10.50
2022-11-14T13:04:23.416Z,10.30
2022-11-14T13:09:53.386Z,10.20
2022-11-14T13:15:48.588Z,10.00
2022-11-14T13:21:20.849Z,9.80
2022-11-14T13:26:25.770Z,9.60
2022-11-14T13:31:33.315Z,9.40
2022-11-14T13:36:40.915Z,9.40
2022-11-14T13:42:16.692Z,9.30
2022-11-14T13:47:43.774Z,9.30
2022-11-14T13:52:47.001Z,9.20
2022-11-14T13:58:03.844Z,9.20
2022-11-14T14:03:15.819Z,9.00
2022-11-14T14:08:53.781Z,9.00
2022-11-14T14:14:40.526Z,8.80
2022-11-14T14:20:25.919Z,8.70
2022-11-14T14:25:38.634Z,8.60
2022-11-14T14:30:44.818Z,8.40
2022-11-14T14:35:51.865Z,8.40
2022-11-14T14:40:55.268Z,8.20
2022-11-14T14:45:57.436Z,8.10
2022-11-14T14:50:59.960Z,8.00
2022-11-14T14:56:05.245Z,7.80
2022-11-14T15:01:17.953Z,7.70
2022-11-14T15:06:20.572Z,7.60
2022-11-14T15:11:32.257Z,7.40
2022-11-14T15:16:34.802Z,7.30
2022-11-14T15:21:36.750Z,7.20
2022-11-14T15:26:44.402Z,7.10
2022-11-14T15:31:50.776Z,6.90
2022-11-14T15:37:13.275Z,6.90
2022-11-14T15:42:24.447Z,6.70
2022-11-14T15:47:26.272Z,6.60
2022-11-14T15:52:46.310Z,6.60
2022-11-14T15:58:06.711Z,6.50
2022-11-14T16:03:16.920Z,6.50
2022-11-14T16:08:22.015Z,6.50
2022-11-14T16:13:23.929Z,6.40
2022-11-14T16:18:26.086Z,6.40
2022-11-14T16:23:28.019Z,6.30
2022-11-14T16:28:29.994Z,6.30
2022-11-14T16:33:32.391Z,6.30
2022-11-14T16:38:36.777Z,6.40
2022-11-14T16:43:40.684Z,6.30
2022-11-14T16:48:43.330Z,6.20
2022-11-14T16:53:46.313Z,6.20
2022-11-14T16:58:48.324Z,6.20
2022-11-14T17:03:53.972Z,6.20
2022-11-14T17:08:59.704Z,6.20
2022-11-14T17:14:01.541Z,6.00
2022-11-14T17:19:03.779Z,6.00
2022-11-14T17:24:06.020Z,6.00
2022-11-14T17:29:08.848Z,5.90
2022-11-14T17:34:10.923Z,5.90
2022-11-14T17:39:15.967Z,5.90
2022-11-14T17:44:17.842Z,5.80
2022-11-14T17:49:19.704Z,5.80
2022-11-14T17:54:29.476Z,5.70
2022-11-14T17:59:32.411Z,5.70
2022-11-14T18:04:42.517Z,5.70
2022-11-14T18:09:44.396Z,5.60
2022-11-14T18:14:46.236Z,5.60
2022-11-14T18:19:48.061Z,5.60
2022-11-14T18:24:50.826Z,5.50
2022-11-14T18:29:52.685Z,5.50
2022-11-14T18:34:54.636Z,5.50
2022-11-14T18:39:59.260Z,5.50
2022-11-14T18:45:01.314Z,5.40
2022-11-14T18:50:09.587Z,5.40
2022-11-14T18:55:14.530Z,5.40
2022-11-14T19:00:19.364Z,5.50
2022-11-14T19:05:21.284Z,5.50
2022-11-14T19:10:23.133Z,5.50
2022-11-14T19:15:25.301Z,5.50
2022-11-14T19:20:27.206Z,5.50
2022-11-14T19:25:31.815Z,5.40
2022-11-14T19:30:35.838Z,5.40
2022-11-14T19:35:39.270Z,5.40
2022-11-14T19:40:41.091Z,5.50
2022-11-14T19:45:42.922Z,5.50
2022-11-14T19:50:45.319Z,5.50
2022-11-14T19:55:47.170Z,5.50
2022-11-14T20:00:49.356Z,5.60
2022-11-14T20:05:51.210Z,5.60
2022-11-14T20:11:03.878Z,5.60
2022-11-14T20:16:09.815Z,5.70
2022-11-14T20:21:13.723Z,5.70
2022-11-14T20:26:16.891Z,5.70
2022-11-14T20:31:22.314Z,5.80
2022-11-14T20:36:31.966Z,5.80
2022-11-14T20:41:43.671Z,5.90
2022-11-14T20:46:45.572Z,5.90
2022-11-14T20:51:48.936Z,6.00
2022-11-14T20:56:50.856Z,6.10
2022-11-14T21:01:52.743Z,6.20
2022-11-14T21:06:54.674Z,6.20
2022-11-14T21:11:56.567Z,6.20
2022-11-14T21:17:12.688Z,6.20
2022-11-14T21:22:14.577Z,6.20
2022-11-14T21:27:16.435Z,6.20
2022-11-14T21:32:18.557Z,6.20
2022-11-14T21:37:29.713Z,6.30
2022-11-14T21:42:31.564Z,6.30
2022-11-14T21:47:34.160Z,6.30
2022-11-14T21:52:40.672Z,6.30
2022-11-14T21:57:42.493Z,6.40
2022-11-14T22:03:04.958Z,6.30
2022-11-14T22:08:06.790Z,6.30
2022-11-14T22:13:08.881Z,6.30
2022-11-14T22:18:10.736Z,6.30
2022-11-14T22:23:12.674Z,6.30
2022-11-14T22:28:14.516Z,6.30
2022-11-14T22:33:19.384Z,6.20
2022-11-14T22:38:21.494Z,6.20
2022-11-14T22:43:23.670Z,6.20
2022-11-14T22:48:27.446Z,6.20
2022-11-14T22:53:30.772Z,6.20
2022-11-14T22:58:34.851Z,6.20
2022-11-14T23:03:37.164Z,6.20
2022-11-14T23:08:40.220Z,6.20
2022-11-14T23:13:45.365Z,6.20
2022-11-14T23:18:47.629Z,6.20
2022-11-14T23:23:53.933Z,6.20
2022-11-14T23:28:56.111Z,6.30
2022-11-14T23:33:58.314Z,6.30
2022-11-14T23:39:02.811Z,6.30
2022-11-14T23:44:04.777Z,6.30
2022-11-14T23:49:06.603Z,6.30
2022-11-14T23:54:08.554Z,6.40
2022-11-14T23:59:10.608Z,6.30
